Johnstown, Pennsylvania
Current Conditions -  °F | °C
As of 9:54 PM on Sunday 21 Dec 2014 (Local Time) from KJST Reporting Station
Clear Clear  
Wind Chill: -8°   Ceiling: Unl
Heat Index: -5°   Visibility: 10mi
Dew Point: -8°   Wind: 5mph
Humidity: 81%   Direction: 130°SE
Pressure: 30.18"   Gusts: NA
Location:  40.33°N, 78.92°W
Report Text: KJST 220254Z AUTO 13004KT 10SM CLR M05/M08 A3018 RMK AO2 SLP252 T10501078 56001
Loading
Personal Weather Stations






























Interactive Weather Map New forecast layout! Learn more

10-Day Weather Forecast

Advertisements
Track Severe Weather on mobile